Time;durP1;ratioP1;P1;durP2;ratioP2;P2;SDS_P1;SDS_P2;PMS_P1;PMS_P2;Temp;Humidity;BMP_temperature;BMP_pressure;BME280_temperature;BME280_humidity;BME280_pressure;Samples;Min_cycle;Max_cycle;Signal;HPM_P1;HPM_P2
2022/05/15 00:00:46;;;;;;;13.52;7.45;;;10.50;99.90;;;;;;7347368;32;20129;-63
2022/05/15 00:04:49;;;;;;;14.50;6.60;;;10.50;99.90;;;;;;7341787;32;20111;-62
2022/05/15 00:08:51;;;;;;;14.18;7.05;;;10.40;99.90;;;;;;7341411;32;20540;-62
2022/05/15 00:12:52;;;;;;;14.87;7.15;;;10.40;99.90;;;;;;7348743;32;20238;-60
2022/05/15 00:16:54;;;;;;;12.07;7.00;;;10.40;99.90;;;;;;7351336;32;20414;-60
2022/05/15 00:20:56;;;;;;;11.57;6.30;;;10.30;99.90;;;;;;7354211;32;20170;-61
2022/05/15 00:24:57;;;;;;;9.93;6.53;;;10.20;99.90;;;;;;7351345;32;20134;-60
2022/05/15 00:28:59;;;;;;;12.43;7.25;;;10.10;99.90;;;;;;7345375;32;20461;-61
2022/05/15 00:33:01;;;;;;;13.10;7.10;;;10.10;99.90;;;;;;7339508;32;20572;-60
2022/05/15 00:37:03;;;;;;;12.15;6.75;;;10.10;99.90;;;;;;7359382;32;20229;-60
2022/05/15 00:41:05;;;;;;;11.05;6.12;;;10.10;99.90;;;;;;7353253;32;20489;-60
2022/05/15 00:45:08;;;;;;;8.30;6.07;;;10.00;99.90;;;;;;7356357;32;20135;-60
2022/05/15 00:49:12;;;;;;;14.63;6.60;;;9.90;99.90;;;;;;7364598;32;20141;-60
2022/05/15 00:53:14;;;;;;;14.00;6.87;;;9.90;99.90;;;;;;7356014;32;20524;-60
2022/05/15 00:57:22;;;;;;;9.48;6.53;;;9.90;99.90;;;;;;7355116;32;20102;-60
2022/05/15 01:01:23;;;;;;;;;;;9.80;99.90;;;;;;7360018;32;20217;-60
2022/05/15 01:05:25;;;;;;;15.35;6.75;;;9.80;99.90;;;;;;7361782;32;20380;-60
2022/05/15 01:09:28;;;;;;;10.23;6.68;;;9.80;99.90;;;;;;7348938;32;20142;-60
2022/05/15 01:13:34;;;;;;;14.55;7.40;;;9.70;99.90;;;;;;7341713;32;20531;-59
2022/05/15 01:17:36;;;;;;;12.68;6.45;;;9.70;99.90;;;;;;7368165;32;20115;-60
2022/05/15 01:21:49;;;;;;;14.63;7.07;;;9.80;99.90;;;;;;7339403;32;20108;-60
2022/05/15 01:25:51;;;;;;;12.35;6.82;;;9.70;99.90;;;;;;7352525;32;20322;-60
2022/05/15 01:29:53;;;;;;;14.45;6.57;;;9.70;99.90;;;;;;7341424;32;20108;-60
2022/05/15 01:33:55;;;;;;;12.95;6.25;;;9.70;99.90;;;;;;7359399;32;20166;-60
2022/05/15 01:37:57;;;;;;;12.18;6.32;;;9.70;99.90;;;;;;7354309;32;20126;-61
2022/05/15 01:41:59;;;;;;;12.60;6.30;;;9.70;99.90;;;;;;7352094;32;20107;-60
2022/05/15 01:46:01;;;;;;;9.77;6.00;;;9.60;99.90;;;;;;7349278;32;20253;-60
2022/05/15 01:50:03;;;;;;;9.77;6.55;;;9.60;99.90;;;;;;7365056;32;20099;-60
2022/05/15 01:54:05;;;;;;;9.90;6.10;;;9.50;99.90;;;;;;7361659;32;20227;-60
2022/05/15 01:58:10;;;;;;;8.45;6.37;;;9.50;99.90;;;;;;7357026;32;20281;-60
2022/05/15 02:02:11;;;;;;;10.90;6.15;;;9.40;99.90;;;;;;7357599;32;20538;-60
2022/05/15 02:06:14;;;;;;;11.65;6.25;;;9.40;99.90;;;;;;7352566;32;20474;-61
2022/05/15 02:10:16;;;;;;;12.88;6.37;;;9.20;99.90;;;;;;7360384;32;20108;-61
2022/05/15 02:14:19;;;;;;;12.23;6.22;;;9.30;99.90;;;;;;7354202;32;20107;-60
2022/05/15 02:18:21;;;;;;;12.02;6.72;;;9.20;99.90;;;;;;7354450;32;20575;-61
2022/05/15 02:22:22;;;;;;;12.02;6.00;;;9.20;99.90;;;;;;7357407;32;20103;-60
2022/05/15 02:26:24;;;;;;;11.68;6.12;;;9.00;99.90;;;;;;7341602;32;20099;-60
2022/05/15 02:30:26;;;;;;;9.88;6.05;;;9.00;99.90;;;;;;7366623;32;20099;-60
2022/05/15 02:34:28;;;;;;;11.85;6.47;;;9.00;99.90;;;;;;7361493;32;20503;-61
2022/05/15 02:38:30;;;;;;;9.98;6.10;;;8.90;99.90;;;;;;7353936;32;20125;-61
2022/05/15 02:42:32;;;;;;;13.65;7.35;;;8.80;99.90;;;;;;7353321;32;20534;-60
2022/05/15 02:46:34;;;;;;;9.40;6.87;;;8.80;99.90;;;;;;7354496;32;20129;-61
2022/05/15 02:54:56;;;;;;;10.45;6.68;;;8.70;99.90;;;;;;7350892;32;20107;-60
2022/05/15 02:58:58;;;;;;;9.80;6.70;;;8.70;99.90;;;;;;7341699;32;20495;-60
2022/05/15 03:03:00;;;;;;;9.23;6.55;;;8.60;99.90;;;;;;7351684;32;20467;-61
2022/05/15 03:07:07;;;;;;;16.42;6.95;;;8.50;99.90;;;;;;7364555;32;20115;-60
2022/05/15 03:11:09;;;;;;;11.63;7.22;;;8.50;99.90;;;;;;7344783;32;20347;-60
2022/05/15 03:15:14;;;;;;;9.32;7.03;;;8.40;99.90;;;;;;7348907;32;20167;-60
2022/05/15 03:19:16;;;;;;;9.90;6.72;;;8.40;99.90;;;;;;7354638;32;20144;-62
2022/05/15 03:23:18;;;;;;;11.60;6.90;;;8.30;99.90;;;;;;7352625;32;20230;-60
2022/05/15 03:27:19;;;;;;;15.25;7.25;;;8.30;99.90;;;;;;7348618;32;20222;-60
2022/05/15 03:31:21;;;;;;;10.93;6.65;;;8.20;99.90;;;;;;7340209;32;20122;-61
2022/05/15 03:35:23;;;;;;;16.70;7.20;;;8.20;99.90;;;;;;7346494;32;20103;-60
2022/05/15 03:39:25;;;;;;;12.73;7.35;;;8.20;99.90;;;;;;7355470;32;20103;-61
2022/05/15 03:43:26;;;;;;;14.15;6.87;;;8.20;99.90;;;;;;7360838;32;20103;-60
2022/05/15 03:47:28;;;;;;;10.05;6.72;;;8.10;99.90;;;;;;7355576;32;20524;-60
2022/05/15 03:51:30;;;;;;;9.43;6.72;;;8.10;99.90;;;;;;7358034;32;20648;-61
2022/05/15 03:55:32;;;;;;;11.63;6.22;;;8.10;99.90;;;;;;7341099;32;20876;-61
2022/05/15 03:59:38;;;;;;;12.63;6.80;;;8.10;99.90;;;;;;7352171;32;20125;-60
2022/05/15 04:03:40;;;;;;;10.98;6.90;;;8.10;99.90;;;;;;7262051;32;20494;-60
2022/05/15 04:07:44;;;;;;;11.30;6.80;;;8.10;99.90;;;;;;7232504;32;20235;-61
2022/05/15 04:11:46;;;;;;;14.40;7.75;;;8.10;99.90;;;;;;7231296;32;20119;-60
2022/05/15 04:15:47;;;;;;;11.52;7.82;;;8.10;99.90;;;;;;7236521;32;20156;-61
2022/05/15 04:19:49;;;;;;;10.05;6.78;;;8.10;99.90;;;;;;7237333;32;20268;-61
2022/05/15 04:23:51;;;;;;;14.07;6.30;;;8.20;99.90;;;;;;7233884;32;20113;-61
2022/05/15 04:27:53;;;;;;;12.55;6.60;;;8.20;99.90;;;;;;7288222;32;20232;-60
2022/05/15 04:31:57;;;;;;;10.20;5.80;;;8.30;99.90;;;;;;7286492;32;20347;-61
2022/05/15 04:35:59;;;;;;;9.13;6.05;;;8.40;99.90;;;;;;7236455;32;20453;-60
2022/05/15 04:40:02;;;;;;;8.15;5.75;;;8.60;99.90;;;;;;7241635;32;20100;-61
2022/05/15 04:44:04;;;;;;;8.95;5.78;;;8.80;99.90;;;;;;7238411;32;20160;-61
2022/05/15 04:48:09;;;;;;;9.68;5.85;;;9.20;99.90;;;;;;7289862;32;20570;-61
2022/05/15 04:52:11;;;;;;;11.02;5.50;;;9.70;99.90;;;;;;7240762;32;20497;-60
2022/05/15 04:56:13;;;;;;;8.23;5.00;;;10.10;99.90;;;;;;7241053;32;20138;-60
2022/05/15 05:00:18;;;;;;;8.25;4.55;;;10.50;99.90;;;;;;7299601;32;20113;-60
2022/05/15 05:04:21;;;;;;;8.30;5.37;;;10.80;99.90;;;;;;7361019;32;20202;-62
2022/05/15 05:08:23;;;;;;;5.80;4.70;;;11.20;99.90;;;;;;7350223;32;20482;-61
2022/05/15 05:12:25;;;;;;;7.47;4.53;;;11.60;99.90;;;;;;7366897;32;20119;-60
2022/05/15 05:16:27;;;;;;;9.57;4.85;;;12.00;99.90;;;;;;7361011;32;20107;-61
2022/05/15 05:20:29;;;;;;;5.20;4.15;;;12.20;99.90;;;;;;7358936;32;20429;-61
2022/05/15 05:24:31;;;;;;;12.43;4.95;;;11.70;99.90;;;;;;7353765;32;20551;-61
2022/05/15 05:28:32;;;;;;;10.32;5.40;;;11.50;99.90;;;;;;7354510;32;20242;-61
2022/05/15 05:32:34;;;;;;;7.53;4.97;;;11.30;99.90;;;;;;7367111;32;20107;-61
2022/05/15 05:36:36;;;;;;;7.97;5.22;;;11.20;99.90;;;;;;7371054;32;20232;-61
2022/05/15 05:40:38;;;;;;;9.75;5.40;;;11.20;99.90;;;;;;7348167;32;20479;-61
2022/05/15 05:44:40;;;;;;;10.13;5.28;;;11.20;99.90;;;;;;7352330;32;20121;-61
2022/05/15 05:48:45;;;;;;;6.18;5.25;;;11.20;99.90;;;;;;7349002;32;20125;-62
2022/05/15 05:52:47;;;;;;;10.10;5.53;;;11.30;99.90;;;;;;7364827;32;20099;-62
2022/05/15 05:56:49;;;;;;;10.93;5.85;;;11.40;99.90;;;;;;7353306;32;20121;-62
2022/05/15 06:00:51;;;;;;;8.45;5.53;;;11.50;99.90;;;;;;7330296;32;20107;-61
2022/05/15 06:04:52;;;;;;;9.40;5.78;;;11.70;99.90;;;;;;7348890;32;20202;-61
2022/05/15 06:08:54;;;;;;;10.18;5.53;;;11.90;99.90;;;;;;7358975;32;20241;-63
2022/05/15 06:12:56;;;;;;;7.82;4.90;;;12.10;99.90;;;;;;7358497;32;20108;-62
2022/05/15 06:16:57;;;;;;;9.82;5.32;;;12.40;99.90;;;;;;7344668;32;20104;-62
2022/05/15 06:20:59;;;;;;;7.53;4.55;;;12.80;99.90;;;;;;7346773;32;20107;-61
2022/05/15 06:25:01;;;;;;;8.63;4.68;;;13.60;99.90;;;;;;7350422;32;20103;-62
2022/05/15 06:29:03;;;;;;;9.93;4.30;;;14.90;99.90;;;;;;7347342;32;20182;-63
2022/05/15 06:33:06;;;;;;;6.85;3.10;;;16.20;99.90;;;;;;7363014;32;20288;-64
2022/05/15 06:37:07;;;;;;;11.35;3.33;;;17.70;99.90;;;;;;7361416;32;20582;-65
2022/05/15 06:41:10;;;;;;;9.73;2.80;;;18.60;99.90;;;;;;7340146;32;20111;-66
2022/05/15 06:45:13;;;;;;;5.37;2.85;;;19.60;99.90;;;;;;7354338;32;20411;-65
2022/05/15 06:49:15;;;;;;;12.52;3.62;;;19.10;99.90;;;;;;7366073;32;20186;-65
2022/05/15 06:53:17;;;;;;;11.18;3.58;;;18.60;99.90;;;;;;7349297;32;20103;-64
2022/05/15 06:57:34;;;;;;;8.13;3.72;;;18.00;99.90;;;;;;7341545;32;20107;-65
2022/05/15 07:01:36;;;;;;;8.95;3.58;;;17.80;99.90;;;;;;7320719;32;20336;-64
2022/05/15 07:05:38;;;;;;;8.52;3.50;;;17.70;99.90;;;;;;7239471;32;20391;-65
2022/05/15 07:09:40;;;;;;;7.32;3.10;;;17.80;99.90;;;;;;7289755;32;20658;-65
2022/05/15 07:13:41;;;;;;;9.90;3.83;;;18.00;99.90;;;;;;7240006;32;20113;-65
2022/05/15 07:17:43;;;;;;;11.80;3.35;;;18.10;99.90;;;;;;7240286;32;20207;-64
2022/05/15 07:21:45;;;;;;;12.98;5.07;;;17.80;99.90;;;;;;7238422;32;20127;-65
2022/05/15 07:25:48;;;;;;;8.73;3.75;;;17.70;99.90;;;;;;7256233;32;20156;-65
2022/05/15 07:29:50;;;;;;;7.28;3.53;;;17.70;99.90;;;;;;7279505;32;20493;-65
2022/05/15 07:33:52;;;;;;;9.77;3.65;;;17.80;99.90;;;;;;7239844;32;20432;-65
2022/05/15 07:37:53;;;;;;;8.60;3.60;;;17.80;99.90;;;;;;7286006;32;20349;-65
2022/05/15 07:41:55;;;;;;;14.18;3.90;;;17.90;99.90;;;;;;7292767;32;20113;-66
2022/05/15 07:45:57;;;;;;;15.57;3.20;;;18.00;99.90;;;;;;7238244;32;20151;-62
2022/05/15 07:49:58;;;;;;;16.67;6.53;;;18.40;99.90;;;;;;7239041;32;20113;-65
2022/05/15 07:54:01;;;;;;;8.90;2.75;;;18.60;99.90;;;;;;7292081;32;20116;-60
2022/05/15 07:58:03;;;;;;;9.90;2.58;;;18.90;99.90;;;;;;7236592;32;20218;-60
2022/05/15 08:02:06;;;;;;;7.78;1.83;;;19.30;99.90;;;;;;7236960;32;20135;-60
2022/05/15 08:10:37;;;;;;;8.63;2.58;;;19.70;90.90;;;;;;7233817;32;20410;-63
2022/05/15 08:14:39;;;;;;;10.77;2.20;;;19.80;90.40;;;;;;7240378;32;20105;-63
2022/05/15 08:27:21;;;;;;;9.30;2.58;;;20.90;83.90;;;;;;7234567;32;20109;-65
2022/05/15 08:31:25;;;;;;;11.10;3.03;;;21.00;83.20;;;;;;7294705;32;20200;-65
2022/05/15 08:35:29;;;;;;;9.88;2.85;;;21.20;82.50;;;;;;7224087;32;20129;-64
2022/05/15 08:39:31;;;;;;;10.60;2.40;;;21.70;83.60;;;;;;7234744;32;20108;-65
2022/05/15 08:43:43;;;;;;;10.63;2.60;;;22.30;80.00;;;;;;7289187;32;20262;-65
2022/05/15 08:47:48;;;;;;;12.95;2.78;;;22.90;78.80;;;;;;7288386;32;20108;-64
2022/05/15 08:52:16;;;;;;;9.85;3.17;;;22.80;74.70;;;;;;7291935;32;20784;-66
2022/05/15 08:56:18;;;;;;;5.50;2.03;;;23.60;77.10;;;;;;7282193;32;20136;-65
2022/05/15 09:00:43;;;;;;;7.72;2.22;;;23.90;65.80;;;;;;7284826;32;20188;-66
2022/05/15 09:04:45;;;;;;;8.68;2.20;;;24.30;63.20;;;;;;7224541;32;20340;-63
2022/05/15 09:09:16;;;;;;;8.57;2.25;;;24.60;67.20;;;;;;7232498;32;20165;-63
2022/05/15 09:13:29;;;;;;;6.80;1.62;;;24.40;62.60;;;;;;7273154;32;20188;-64
2022/05/15 09:17:40;;;;;;;8.07;3.40;;;25.00;62.80;;;;;;7232787;32;20112;-63
2022/05/15 09:21:41;;;;;;;7.22;2.20;;;25.40;59.30;;;;;;7286482;32;20126;-62
2022/05/15 09:25:57;;;;;;;5.80;1.90;;;25.90;57.10;;;;;;7229594;32;20219;-60
2022/05/15 09:30:05;;;;;;;14.45;4.55;;;25.40;57.80;;;;;;7228235;32;20131;-66
2022/05/15 09:34:28;;;;;;;75.95;60.28;;;26.10;58.20;;;;;;7281424;32;20123;-66
2022/05/15 09:38:30;;;;;;;31.92;25.35;;;26.40;54.80;;;;;;7232663;32;20101;-66
2022/05/15 09:47:28;;;;;;;6.62;1.85;;;27.10;54.50;;;;;;7228973;32;20101;-66
2022/05/15 09:51:56;;;;;;;6.72;2.12;;;27.40;57.20;;;;;;7230940;32;20212;-66
2022/05/15 09:56:01;;;;;;;9.88;2.40;;;26.70;53.50;;;;;;7234023;32;20167;-66
2022/05/15 10:00:11;;;;;;;8.60;1.92;;;26.50;54.10;;;;;;7277640;32;20135;-65
2022/05/15 10:04:22;;;;;;;8.88;2.28;;;27.10;55.90;;;;;;7346536;32;20262;-65
2022/05/15 10:08:27;;;;;;;10.60;2.05;;;26.80;52.70;;;;;;7360784;32;20235;-58
2022/05/15 10:12:30;;;;;;;8.43;2.33;;;27.10;57.10;;;;;;7344351;32;20358;-66
2022/05/15 10:16:37;;;;;;;7.90;2.10;;;27.20;54.90;;;;;;7365875;32;20217;-66
2022/05/15 10:20:40;;;;;;;7.03;1.80;;;27.80;55.00;;;;;;7338215;32;20114;-67
2022/05/15 10:24:45;;;;;;;5.05;1.67;;;27.00;53.90;;;;;;7356248;32;20206;-66
2022/05/15 10:29:16;;;;;;;6.62;2.08;;;27.40;57.30;;;;;;7345327;32;20653;-66
2022/05/15 10:33:19;;;;;;;7.82;2.00;;;27.20;55.00;;;;;;7347988;32;20137;-67
2022/05/15 10:37:36;;;;;;;5.72;2.12;;;27.60;55.70;;;;;;7354096;32;20479;-66
2022/05/15 10:42:15;;;;;;;6.80;2.17;;;26.60;55.80;;;;;;7347909;32;20432;-66
2022/05/15 10:46:56;;;;;;;8.82;2.12;;;26.40;56.60;;;;;;7352381;32;20125;-66
2022/05/15 10:51:07;;;;;;;11.30;2.60;;;26.40;54.70;;;;;;7348113;32;20593;-66
2022/05/15 10:59:59;;;;;;;11.00;1.90;;;25.80;56.60;;;;;;7358805;32;20411;-66
2022/05/15 11:04:14;;;;;;;7.22;2.08;;;26.40;58.40;;;;;;7359406;32;20170;-67
2022/05/15 11:08:24;;;;;;;10.48;2.00;;;26.60;58.50;;;;;;7361582;32;20125;-67
2022/05/15 11:13:11;;;;;;;5.87;1.60;;;26.70;56.90;;;;;;7346747;32;20166;-66
2022/05/15 11:17:35;;;;;;;5.10;1.80;;;26.70;54.80;;;;;;7235524;32;20670;-66
2022/05/15 11:21:59;;;;;;;8.07;1.98;;;26.80;56.80;;;;;;7315612;32;20107;-66
2022/05/15 11:26:22;;;;;;;8.55;1.90;;;26.70;55.20;;;;;;7359482;32;20256;-69
2022/05/15 11:30:35;;;;;;;8.10;2.12;;;26.50;55.60;;;;;;7359641;32;20129;-69
2022/05/15 11:35:14;;;;;;;22.55;11.90;;;26.30;53.50;;;;;;7357768;32;20574;-65
2022/05/15 11:39:24;;;;;;;7.87;2.12;;;26.60;56.60;;;;;;7357910;32;20605;-70
2022/05/15 11:43:26;;;;;;;;;;;26.60;53.90;;;;;;7360398;32;20378;-70
2022/05/15 11:47:34;;;;;;;6.55;1.98;;;26.60;53.80;;;;;;7345301;32;20058;-69
2022/05/15 11:51:36;;;;;;;6.03;1.90;;;26.80;56.30;;;;;;7345175;32;20107;-68
2022/05/15 11:55:44;;;;;;;6.55;1.80;;;26.20;57.80;;;;;;7354171;32;20107;-68
2022/05/15 11:59:55;;;;;;;5.93;1.90;;;26.50;59.70;;;;;;7352359;32;20133;-65
2022/05/15 12:04:04;;;;;;;12.60;2.75;;;26.50;53.90;;;;;;7358046;32;20199;-66
2022/05/15 12:08:18;;;;;;;10.45;2.60;;;26.70;55.40;;;;;;7338745;32;20183;-65
2022/05/15 12:12:20;;;;;;;6.68;1.83;;;26.50;55.60;;;;;;7353115;32;20119;-65
2022/05/15 12:16:27;;;;;;;15.25;7.32;;;26.70;55.70;;;;;;7359084;32;20099;-64
2022/05/15 12:20:29;;;;;;;5.37;1.92;;;26.60;54.50;;;;;;7348679;32;20118;-64
2022/05/15 12:24:34;;;;;;;7.68;1.90;;;26.40;54.50;;;;;;7360652;32;20198;-65
2022/05/15 12:28:51;;;;;;;6.43;2.28;;;26.60;55.30;;;;;;7343538;32;20111;-68
2022/05/15 12:33:00;;;;;;;7.12;1.80;;;26.70;53.30;;;;;;7354885;32;20612;-66
2022/05/15 12:37:06;;;;;;;5.90;1.83;;;26.50;55.80;;;;;;7351020;32;20458;-67
2022/05/15 12:41:14;;;;;;;9.15;2.08;;;26.70;57.10;;;;;;7355441;32;20130;-68
2022/05/15 12:45:20;;;;;;;5.68;1.58;;;26.50;56.10;;;;;;7347908;32;20127;-65
2022/05/15 12:49:38;;;;;;;5.35;1.70;;;26.70;55.30;;;;;;7353484;32;20593;-66
2022/05/15 12:53:44;;;;;;;7.40;1.90;;;26.70;55.30;;;;;;7358176;32;20103;-66
2022/05/15 12:57:53;;;;;;;8.27;1.87;;;26.70;52.90;;;;;;7360068;32;20107;-66
2022/05/15 13:01:55;;;;;;;12.50;2.28;;;26.60;54.00;;;;;;7357236;32;20138;-66
2022/05/15 13:05:59;;;;;;;6.25;1.90;;;26.70;53.50;;;;;;7361095;32;21599;-66
2022/05/15 13:10:10;;;;;;;6.78;1.60;;;26.40;52.80;;;;;;7363835;32;20386;-67
2022/05/15 13:14:23;;;;;;;6.93;1.70;;;26.40;53.60;;;;;;7366469;32;20106;-66
2022/05/15 13:18:28;;;;;;;7.37;2.12;;;26.20;53.20;;;;;;7361329;32;20107;-66
2022/05/15 13:22:31;;;;;;;6.20;2.22;;;26.30;53.80;;;;;;7368276;32;20107;-66
2022/05/15 13:26:44;;;;;;;5.62;1.92;;;26.40;53.50;;;;;;7357063;32;20198;-66
2022/05/15 13:30:46;;;;;;;6.25;1.65;;;26.40;52.50;;;;;;7362010;32;20201;-66
2022/05/15 13:34:50;;;;;;;5.07;1.65;;;26.60;53.30;;;;;;7342922;32;20180;-68
2022/05/15 13:43:18;;;;;;;7.55;1.92;;;26.30;52.30;;;;;;7362844;32;20411;-67
2022/05/15 13:47:22;;;;;;;7.50;1.95;;;26.40;51.80;;;;;;7358796;32;20241;-68
2022/05/15 13:51:40;;;;;;;7.82;1.42;;;26.60;54.30;;;;;;7361324;32;20273;-66
2022/05/15 13:55:42;;;;;;;2.95;1.48;;;26.80;53.00;;;;;;7357029;32;20122;-67
2022/05/15 14:00:00;;;;;;;8.93;1.98;;;26.90;51.40;;;;;;7336431;32;20248;-67
2022/05/15 14:04:26;;;;;;;3.58;1.30;;;26.90;51.50;;;;;;7361710;32;20555;-67
2022/05/15 14:08:28;;;;;;;6.47;1.37;;;26.90;51.10;;;;;;7367092;32;20102;-67
2022/05/15 14:12:53;;;;;;;5.25;1.52;;;27.10;51.40;;;;;;7344368;32;20185;-66
2022/05/15 14:17:05;;;;;;;6.25;1.62;;;27.00;51.90;;;;;;7356684;32;20157;-67
2022/05/15 14:21:08;;;;;;;5.93;1.80;;;26.90;51.90;;;;;;7359647;32;20515;-66
2022/05/15 14:25:10;;;;;;;5.07;1.58;;;26.90;50.70;;;;;;7360925;32;20139;-66
2022/05/15 14:29:13;;;;;;;3.65;1.62;;;26.70;51.70;;;;;;7359494;32;20159;-66
2022/05/15 14:33:20;;;;;;;7.35;1.40;;;26.80;51.10;;;;;;7344097;32;20224;-67
2022/05/15 14:37:22;;;;;;;5.95;1.35;;;26.80;48.90;;;;;;7347820;32;20171;-66
2022/05/15 14:41:25;;;;;;;3.72;1.35;;;26.70;48.20;;;;;;7364397;32;20354;-67
2022/05/15 14:45:28;;;;;;;5.20;1.65;;;26.90;47.80;;;;;;7355808;32;20217;-66
2022/05/15 14:49:33;;;;;;;6.25;1.70;;;26.70;49.00;;;;;;7361245;32;20122;-65
2022/05/15 14:53:36;;;;;;;10.73;1.75;;;26.70;49.60;;;;;;7357539;32;20111;-65
2022/05/15 14:57:38;;;;;;;7.50;2.00;;;27.20;50.20;;;;;;7354931;32;20131;-65
2022/05/15 15:01:41;;;;;;;3.22;1.35;;;27.50;48.20;;;;;;7338212;32;20533;-67
2022/05/15 15:05:50;;;;;;;6.18;1.67;;;27.60;49.40;;;;;;7363166;32;20194;-67
2022/05/15 15:09:51;;;;;;;6.18;1.65;;;27.40;49.60;;;;;;7352075;32;20338;-67
2022/05/15 15:14:01;;;;;;;7.30;2.10;;;26.90;51.70;;;;;;7358778;32;20585;-66
2022/05/15 15:18:09;;;;;;;4.55;1.52;;;26.40;54.30;;;;;;7339171;32;20134;-66
2022/05/15 15:22:10;;;;;;;8.07;2.30;;;26.20;53.40;;;;;;7360404;32;20197;-64
2022/05/15 15:26:13;;;;;;;7.68;2.20;;;26.30;55.80;;;;;;7359951;32;20804;-66
2022/05/15 15:30:15;;;;;;;8.10;2.53;;;26.10;55.70;;;;;;7353416;32;20103;-65
2022/05/15 15:34:17;;;;;;;10.40;2.70;;;25.80;57.30;;;;;;7346553;32;20103;-66
2022/05/15 15:38:20;;;;;;;6.90;2.00;;;25.70;56.80;;;;;;7331493;32;20129;-64
2022/05/15 15:42:22;;;;;;;8.90;2.28;;;25.50;57.70;;;;;;7358397;32;20201;-64
2022/05/15 15:46:25;;;;;;;5.53;1.87;;;25.30;57.20;;;;;;7341788;32;20322;-64
2022/05/15 15:50:29;;;;;;;7.18;2.22;;;25.30;57.90;;;;;;7360565;32;20149;-64
2022/05/15 15:54:30;;;;;;;8.48;2.20;;;25.30;58.40;;;;;;7352441;32;20247;-64
2022/05/15 15:58:32;;;;;;;6.70;2.20;;;25.30;59.10;;;;;;7344836;32;20273;-64
2022/05/15 16:02:34;;;;;;;7.97;2.28;;;25.30;58.90;;;;;;7344809;32;20216;-64
2022/05/15 16:06:36;;;;;;;9.38;2.30;;;25.20;59.30;;;;;;7358871;32;20138;-64
2022/05/15 16:10:40;;;;;;;8.35;2.40;;;25.20;60.80;;;;;;7339459;32;20158;-60
2022/05/15 16:14:42;;;;;;;10.52;2.55;;;25.20;59.60;;;;;;7340159;32;20103;-60
2022/05/15 16:18:44;;;;;;;6.95;2.40;;;25.00;59.30;;;;;;7340397;32;20122;-61
2022/05/15 16:22:47;;;;;;;7.57;2.58;;;24.90;61.70;;;;;;7356629;32;20107;-61
2022/05/15 16:26:53;;;;;;;8.15;2.40;;;24.80;61.70;;;;;;7352423;32;20141;-60
2022/05/15 16:30:55;;;;;;;8.20;2.33;;;24.70;61.50;;;;;;7355405;32;20217;-60
2022/05/15 16:34:58;;;;;;;7.15;2.08;;;24.60;62.10;;;;;;7346978;32;20206;-60
2022/05/15 16:39:00;;;;;;;8.02;2.37;;;24.60;63.10;;;;;;7366685;32;20136;-64
2022/05/15 16:43:03;;;;;;;9.63;2.72;;;24.50;63.60;;;;;;7363287;32;20833;-66
2022/05/15 16:47:05;;;;;;;18.35;10.00;;;24.40;64.30;;;;;;7360427;32;20141;-66
2022/05/15 16:51:07;;;;;;;8.80;2.40;;;24.40;64.80;;;;;;7363825;32;20149;-68
2022/05/15 16:55:09;;;;;;;6.55;2.30;;;24.30;64.50;;;;;;7345771;32;20107;-65
2022/05/15 16:59:11;;;;;;;79.72;62.45;;;24.20;66.00;;;;;;7342684;32;20102;-65
2022/05/15 17:03:13;;;;;;;8.48;2.47;;;24.10;66.00;;;;;;7366490;32;20127;-66
2022/05/15 17:07:15;;;;;;;7.78;2.40;;;23.90;67.30;;;;;;7347015;32;20214;-65
2022/05/15 17:11:21;;;;;;;9.68;2.37;;;23.90;68.70;;;;;;7360195;32;20509;-65
2022/05/15 17:15:26;;;;;;;16.42;5.97;;;23.80;67.60;;;;;;7361090;32;20250;-64
2022/05/15 17:19:28;;;;;;;8.85;2.58;;;23.70;69.30;;;;;;7365124;32;20184;-65
2022/05/15 17:23:30;;;;;;;11.07;5.05;;;23.70;69.30;;;;;;7349299;32;20448;-65
2022/05/15 17:27:31;;;;;;;9.23;2.92;;;23.80;70.10;;;;;;7364149;32;20135;-67
2022/05/15 17:35:56;;;;;;;6.50;2.50;;;23.70;68.40;;;;;;7359449;32;20195;-65
2022/05/15 17:40:09;;;;;;;12.05;2.60;;;23.50;69.70;;;;;;7362756;32;20130;-67
2022/05/15 17:44:12;;;;;;;6.85;2.37;;;23.40;71.40;;;;;;7343212;32;20162;-68
2022/05/15 17:48:15;;;;;;;10.93;2.78;;;23.30;71.20;;;;;;7357454;32;20103;-66
2022/05/15 17:52:18;;;;;;;8.75;2.83;;;23.30;70.10;;;;;;7359877;32;20480;-65
2022/05/15 17:56:20;;;;;;;10.40;2.47;;;23.30;69.90;;;;;;7360145;32;20125;-67
2022/05/15 18:00:27;;;;;;;9.95;3.22;;;23.10;70.50;;;;;;7360167;32;20229;-67
2022/05/15 18:04:30;;;;;;;8.77;2.85;;;23.00;70.80;;;;;;7238022;32;20184;-67
2022/05/15 18:08:31;;;;;;;7.53;2.65;;;22.90;71.60;;;;;;7277021;32;20112;-66
2022/05/15 18:12:34;;;;;;;11.07;3.10;;;22.70;73.60;;;;;;7227195;32;20108;-58
2022/05/15 18:16:39;;;;;;;11.77;3.00;;;22.70;72.90;;;;;;7281896;32;20195;-65
2022/05/15 18:20:41;;;;;;;9.98;2.58;;;22.60;73.80;;;;;;7227697;32;20256;-66
2022/05/15 18:24:43;;;;;;;11.50;3.05;;;22.50;73.40;;;;;;7227296;32;20155;-67
2022/05/15 18:28:45;;;;;;;13.32;2.45;;;22.40;74.30;;;;;;7278089;32;20899;-69
2022/05/15 18:32:47;;;;;;;5.50;1.90;;;22.30;74.60;;;;;;7233077;32;20269;-70
2022/05/15 18:36:49;;;;;;;10.70;2.62;;;22.10;75.90;;;;;;7286099;32;20175;-69
2022/05/15 18:40:51;;;;;;;8.48;2.28;;;22.00;76.30;;;;;;7240078;32;20127;-68
2022/05/15 18:44:53;;;;;;;9.85;2.00;;;21.80;77.20;;;;;;7232509;32;20137;-68
2022/05/15 18:48:55;;;;;;;6.12;2.42;;;21.70;78.10;;;;;;7235520;32;20168;-68
2022/05/15 18:57:18;;;;;;;8.63;2.33;;;21.40;80.20;;;;;;7233646;32;20104;-65
2022/05/15 19:01:24;;;;;;;9.05;2.55;;;21.30;80.60;;;;;;7303420;32;20107;-68
2022/05/15 19:05:26;;;;;;;5.60;1.98;;;21.20;82.10;;;;;;7344504;32;20215;-66
2022/05/15 19:09:28;;;;;;;9.80;2.80;;;21.10;82.60;;;;;;7344185;32;20130;-67
2022/05/15 19:13:30;;;;;;;6.18;2.15;;;20.80;84.10;;;;;;7369148;32;20103;-67
2022/05/15 19:17:32;;;;;;;8.50;2.58;;;20.70;84.20;;;;;;7369267;32;20186;-68
2022/05/15 19:21:34;;;;;;;8.40;2.20;;;20.60;84.50;;;;;;7365201;32;20110;-68
2022/05/15 19:25:37;;;;;;;11.20;2.60;;;20.50;85.60;;;;;;7356809;32;20197;-68
2022/05/15 19:29:39;;;;;;;8.52;2.35;;;20.30;87.70;;;;;;7338926;32;20104;-65
2022/05/15 19:33:41;;;;;;;6.00;2.28;;;20.20;88.10;;;;;;7361543;32;20191;-65
2022/05/15 19:37:53;;;;;;;9.07;2.25;;;20.00;88.00;;;;;;7343146;32;20598;-67
2022/05/15 19:41:54;;;;;;;10.23;2.17;;;20.00;89.40;;;;;;7354380;32;20542;-65
2022/05/15 19:45:56;;;;;;;9.57;2.78;;;19.80;90.50;;;;;;7362503;32;20232;-66
2022/05/15 19:49:59;;;;;;;11.05;3.00;;;19.70;91.50;;;;;;7364000;32;20125;-67
2022/05/15 19:54:02;;;;;;;7.55;2.15;;;19.60;91.40;;;;;;7362202;32;20135;-66
2022/05/15 19:58:03;;;;;;;6.68;2.00;;;19.40;91.80;;;;;;7353274;32;20161;-65
2022/05/15 20:02:06;;;;;;;7.97;2.40;;;19.50;92.10;;;;;;7357535;32;20130;-65
2022/05/15 20:15:09;;;;;;;8.90;2.67;;;19.00;95.20;;;;;;7314058;32;20727;-65
2022/05/15 20:19:11;;;;;;;6.20;2.60;;;18.90;96.50;;;;;;7356327;32;20107;-64
2022/05/15 20:23:12;;;;;;;12.02;2.55;;;18.70;98.70;;;;;;7355081;32;20142;-65
2022/05/15 20:27:14;;;;;;;9.30;2.62;;;18.50;99.90;;;;;;7358593;32;20201;-65
2022/05/15 20:31:23;;;;;;;9.90;2.47;;;18.40;99.90;;;;;;7364020;32;20114;-66
2022/05/15 20:35:25;;;;;;;9.05;2.70;;;18.20;99.90;;;;;;7353627;32;20111;-66
2022/05/15 20:39:28;;;;;;;13.05;2.53;;;18.00;99.90;;;;;;7358462;32;20194;-67
2022/05/15 20:43:30;;;;;;;7.30;2.78;;;17.90;99.90;;;;;;7362209;32;20099;-62
2022/05/15 20:47:31;;;;;;;7.57;2.60;;;17.80;99.90;;;;;;7368007;32;20107;-63
2022/05/15 20:51:36;;;;;;;13.25;2.70;;;17.60;99.90;;;;;;7359483;32;20178;-62
2022/05/15 20:55:38;;;;;;;7.55;2.58;;;17.50;99.90;;;;;;7350559;32;20099;-63
2022/05/15 20:59:41;;;;;;;7.50;2.55;;;17.40;99.90;;;;;;7366047;32;20102;-62
2022/05/15 21:03:43;;;;;;;8.65;2.67;;;17.40;99.90;;;;;;7351273;32;20138;-64
2022/05/15 21:07:45;;;;;;;8.98;2.65;;;17.30;99.90;;;;;;7360384;32;20208;-62
2022/05/15 21:11:47;;;;;;;10.48;3.03;;;17.20;99.90;;;;;;7351768;32;20216;-62
2022/05/15 21:15:53;;;;;;;9.50;2.42;;;17.30;99.90;;;;;;7355487;32;20377;-62
2022/05/15 21:19:55;;;;;;;7.37;2.67;;;17.10;99.90;;;;;;7365300;32;20135;-62
2022/05/15 21:24:03;;;;;;;8.50;2.67;;;16.90;99.90;;;;;;7355444;32;20106;-65
2022/05/15 21:28:05;;;;;;;11.00;2.70;;;16.70;99.90;;;;;;7369320;32;20110;-61
2022/05/15 21:32:08;;;;;;;7.45;2.67;;;16.50;99.90;;;;;;7341598;32;20216;-63
2022/05/15 21:36:10;;;;;;;6.15;2.62;;;16.30;99.90;;;;;;7364105;32;20386;-63
2022/05/15 21:44:35;;;;;;;8.10;3.60;;;15.80;99.90;;;;;;7363622;32;20199;-60
2022/05/15 21:48:37;;;;;;;9.43;3.00;;;15.50;99.90;;;;;;7364936;32;20122;-62
2022/05/15 21:52:38;;;;;;;8.25;3.37;;;15.30;99.90;;;;;;7356785;32;20121;-60
2022/05/15 21:56:40;;;;;;;8.90;3.60;;;15.10;99.90;;;;;;7349382;32;20106;-61
2022/05/15 22:00:57;;;;;;;11.00;3.28;;;15.00;99.90;;;;;;7362057;32;20129;-61
2022/05/15 22:04:59;;;;;;;9.33;2.97;;;14.80;99.90;;;;;;7362607;32;20166;-60